createdAt,value
2022-12-26T00:00:12.057Z,17.17
2022-12-26T00:01:14.971Z,16.23
2022-12-26T00:02:17.694Z,17.30
2022-12-26T00:03:20.552Z,16.20
2022-12-26T00:04:49.740Z,17.52
2022-12-26T00:05:49.738Z,16.58
2022-12-26T00:06:52.538Z,17.58
2022-12-26T00:07:55.475Z,17.33
2022-12-26T00:08:59.190Z,18.85
2022-12-26T00:10:02.826Z,17.02
2022-12-26T00:11:05.746Z,17.17
2022-12-26T00:12:08.622Z,17.92
2022-12-26T00:13:39.621Z,17.05
2022-12-26T00:14:34.047Z,17.63
2022-12-26T00:15:40.802Z,17.75
2022-12-26T00:16:45.094Z,18.75
2022-12-26T00:17:48.198Z,17.65
2022-12-26T00:18:51.196Z,17.75
2022-12-26T00:19:53.977Z,18.60
2022-12-26T00:20:56.676Z,18.63
2022-12-26T00:21:59.470Z,18.38
2022-12-26T00:23:02.383Z,18.50
2022-12-26T00:24:05.474Z,17.75
2022-12-26T00:25:08.504Z,17.65
2022-12-26T00:26:16.880Z,17.98
2022-12-26T00:27:19.624Z,17.42
2022-12-26T00:28:23.419Z,17.70
2022-12-26T00:29:26.305Z,18.38
2022-12-26T00:30:29.206Z,16.85
2022-12-26T00:31:34.206Z,17.23
2022-12-26T00:32:37.025Z,16.67
2022-12-26T00:33:40.204Z,17.08
2022-12-26T00:34:43.092Z,17.88
2022-12-26T00:35:45.886Z,16.50
2022-12-26T00:36:48.694Z,16.83
2022-12-26T00:37:51.386Z,18.17
2022-12-26T00:38:54.941Z,16.83
2022-12-26T00:39:57.735Z,16.58
2022-12-26T00:41:02.107Z,18.20
2022-12-26T00:42:04.907Z,16.75
2022-12-26T00:43:07.721Z,16.83
2022-12-26T00:44:10.420Z,16.50
2022-12-26T00:45:13.239Z,16.55
2022-12-26T00:46:17.021Z,16.40
2022-12-26T00:47:19.941Z,17.48
2022-12-26T00:48:22.985Z,16.90
2022-12-26T00:49:25.909Z,17.00
2022-12-26T00:50:34.436Z,17.08
2022-12-26T00:51:37.623Z,16.98
2022-12-26T00:52:40.293Z,15.57
2022-12-26T00:53:43.703Z,16.92
2022-12-26T00:54:46.510Z,16.20
2022-12-26T00:55:49.602Z,17.92
2022-12-26T00:56:52.575Z,16.33
2022-12-26T00:57:55.356Z,15.95
2022-12-26T00:58:58.128Z,16.27
2022-12-26T01:00:00.842Z,16.83
2022-12-26T01:01:12.614Z,16.63
2022-12-26T01:02:34.155Z,15.32
2022-12-26T01:03:37.192Z,16.05
2022-12-26T01:04:40.064Z,15.93
2022-12-26T01:05:44.436Z,16.02
2022-12-26T01:06:47.174Z,17.05
2022-12-26T01:08:21.755Z,17.77
2022-12-26T01:09:13.765Z,15.00
2022-12-26T01:10:18.060Z,16.38
2022-12-26T01:11:40.330Z,16.00
2022-12-26T01:12:43.592Z,15.07
2022-12-26T01:13:46.332Z,16.30
2022-12-26T01:14:49.153Z,15.23
2022-12-26T01:15:53.742Z,16.65
2022-12-26T01:16:56.813Z,14.35
2022-12-26T01:18:00.350Z,16.20
2022-12-26T01:19:03.132Z,16.38
2022-12-26T01:20:06.499Z,16.45
2022-12-26T01:21:11.011Z,16.25
2022-12-26T01:22:13.787Z,16.23
2022-12-26T01:23:17.632Z,17.40
2022-12-26T01:24:20.324Z,15.50
2022-12-26T01:25:23.847Z,16.08
2022-12-26T01:26:26.784Z,16.70
2022-12-26T01:27:29.804Z,17.17
2022-12-26T01:28:32.535Z,15.38
2022-12-26T01:29:35.336Z,16.25
2022-12-26T01:30:38.442Z,17.80
2022-12-26T01:31:41.175Z,17.17
2022-12-26T01:32:44.225Z,18.48
2022-12-26T01:33:47.437Z,17.13
2022-12-26T01:34:52.154Z,15.80
2022-12-26T01:35:55.009Z,18.35
2022-12-26T01:36:57.846Z,17.17
2022-12-26T01:38:00.700Z,18.10
2022-12-26T01:39:03.535Z,18.30
2022-12-26T01:40:06.834Z,16.08
2022-12-26T01:41:20.380Z,17.77
2022-12-26T01:42:25.596Z,17.77
2022-12-26T01:43:52.528Z,16.42
2022-12-26T01:45:13.999Z,17.42
2022-12-26T01:46:17.748Z,16.27
2022-12-26T01:47:22.631Z,17.02
2022-12-26T01:48:33.505Z,16.63
2022-12-26T01:49:39.372Z,17.48
2022-12-26T01:50:57.629Z,17.55
2022-12-26T01:52:05.434Z,16.50
2022-12-26T01:53:16.534Z,17.90
2022-12-26T01:54:40.734Z,17.13
2022-12-26T01:55:45.541Z,16.30
2022-12-26T01:56:48.871Z,16.75
2022-12-26T01:57:58.647Z,17.00
2022-12-26T01:59:12.783Z,18.60
2022-12-26T02:00:16.066Z,17.60
2022-12-26T02:01:19.349Z,18.85
2022-12-26T02:02:23.157Z,18.92
2022-12-26T02:03:44.655Z,18.42
2022-12-26T02:05:08.791Z,18.30
2022-12-26T02:06:13.518Z,17.00
2022-12-26T02:07:16.349Z,16.80
2022-12-26T02:08:24.547Z,17.40
2022-12-26T02:09:27.378Z,16.30
2022-12-26T02:10:58.857Z,18.80
2022-12-26T02:12:34.934Z,17.27
2022-12-26T02:13:32.105Z,18.83
2022-12-26T02:14:34.936Z,17.63
2022-12-26T02:15:38.067Z,19.10
2022-12-26T02:16:41.526Z,18.20
2022-12-26T02:17:44.792Z,19.33
2022-12-26T02:18:47.614Z,18.25
2022-12-26T02:20:21.594Z,19.17
2022-12-26T02:21:39.757Z,19.50
2022-12-26T02:23:23.815Z,18.02
2022-12-26T02:24:50.663Z,19.55
2022-12-26T02:26:05.131Z,18.80
2022-12-26T02:27:49.270Z,16.58
2022-12-26T02:28:51.999Z,18.75
2022-12-26T02:30:25.194Z,18.52
2022-12-26T02:31:52.660Z,18.70
2022-12-26T02:32:58.535Z,17.50
2022-12-26T02:34:19.656Z,19.42
2022-12-26T02:35:22.388Z,18.50
2022-12-26T02:36:42.998Z,19.45
2022-12-26T02:38:30.472Z,18.75
2022-12-26T02:39:54.208Z,17.77
2022-12-26T02:41:22.912Z,18.95
2022-12-26T02:42:46.872Z,18.33
2022-12-26T02:44:39.974Z,16.65
2022-12-26T02:46:03.038Z,17.50
2022-12-26T02:47:11.815Z,17.05
2022-12-26T02:48:29.297Z,19.23
2022-12-26T02:50:27.881Z,17.63
2022-12-26T02:52:01.213Z,17.00
2022-12-26T02:53:45.213Z,19.17
2022-12-26T02:55:23.985Z,17.63
2022-12-26T02:57:13.518Z,17.23
2022-12-26T02:58:34.863Z,16.83
2022-12-26T02:59:58.905Z,17.70
2022-12-26T03:01:24.312Z,15.55
2022-12-26T03:03:03.257Z,16.52
2022-12-26T03:04:29.103Z,14.20
2022-12-26T03:06:19.763Z,16.60
2022-12-26T03:07:44.717Z,16.10
2022-12-26T03:09:16.600Z,15.00
2022-12-26T03:10:44.201Z,17.15
2022-12-26T03:12:09.355Z,15.35
2022-12-26T03:13:19.898Z,17.60
2022-12-26T03:14:29.115Z,15.18
2022-12-26T03:15:53.768Z,17.38
2022-12-26T03:17:21.026Z,15.43
2022-12-26T03:19:00.021Z,15.45
2022-12-26T03:20:01.214Z,15.25
2022-12-26T03:21:05.428Z,14.50
2022-12-26T03:22:29.391Z,15.85
2022-12-26T03:23:32.659Z,13.32
2022-12-26T03:24:55.482Z,16.88
2022-12-26T03:26:18.857Z,15.60
2022-12-26T03:27:22.021Z,16.63
2022-12-26T03:28:25.242Z,16.13
2022-12-26T03:29:46.615Z,15.50
2022-12-26T03:30:49.467Z,15.38
2022-12-26T03:31:52.366Z,16.05
2022-12-26T03:32:58.781Z,16.60
2022-12-26T03:34:19.180Z,17.15
2022-12-26T03:35:22.074Z,15.68
2022-12-26T03:36:54.415Z,18.55
2022-12-26T03:38:08.095Z,16.08
2022-12-26T03:39:16.017Z,17.20
2022-12-26T03:41:01.348Z,17.33
2022-12-26T03:42:30.523Z,16.92
2022-12-26T03:44:09.556Z,18.05
2022-12-26T03:46:09.391Z,17.70
2022-12-26T03:47:39.603Z,17.88
2022-12-26T03:49:12.305Z,17.77
2022-12-26T03:50:56.693Z,18.23
2022-12-26T03:52:19.661Z,17.55
2022-12-26T03:53:44.098Z,17.83
2022-12-26T03:55:50.534Z,19.52
2022-12-26T03:57:14.896Z,17.55
2022-12-26T03:58:53.747Z,20.00
2022-12-26T04:00:23.579Z,17.55
2022-12-26T04:01:46.668Z,16.00
2022-12-26T04:03:08.720Z,18.10
2022-12-26T04:04:33.221Z,16.75
2022-12-26T04:05:56.698Z,16.98
2022-12-26T04:07:32.037Z,17.88
2022-12-26T04:09:18.446Z,19.80
2022-12-26T04:10:43.335Z,15.77
2022-12-26T04:12:05.456Z,16.10
2022-12-26T04:13:37.205Z,16.48
2022-12-26T04:15:14.264Z,18.48
2022-12-26T04:16:50.951Z,16.98
2022-12-26T04:18:38.615Z,16.95
2022-12-26T04:19:55.907Z,14.80
2022-12-26T04:20:58.640Z,17.20
2022-12-26T04:22:47.025Z,18.17
2022-12-26T04:24:09.244Z,13.93
2022-12-26T04:25:50.739Z,15.60
2022-12-26T04:27:15.398Z,12.15
2022-12-26T04:28:40.094Z,15.43
2022-12-26T04:30:01.376Z,12.18
2022-12-26T04:31:41.699Z,13.23
2022-12-26T04:33:08.194Z,15.98
2022-12-26T04:34:37.873Z,15.93
2022-12-26T04:36:16.760Z,15.70
2022-12-26T04:37:41.871Z,14.13
2022-12-26T04:39:13.715Z,13.65
2022-12-26T04:40:38.748Z,16.70
2022-12-26T04:42:00.763Z,15.68
2022-12-26T04:43:47.016Z,16.15
2022-12-26T04:44:46.622Z,13.10
2022-12-26T04:45:50.012Z,13.02
2022-12-26T04:46:54.679Z,14.98
2022-12-26T04:48:16.339Z,16.85
2022-12-26T04:49:38.882Z,14.95
2022-12-26T04:50:51.909Z,14.13
2022-12-26T04:51:58.973Z,15.35
2022-12-26T04:53:01.750Z,13.90
2022-12-26T04:54:04.894Z,14.50
2022-12-26T04:55:07.965Z,13.43
2022-12-26T04:56:11.096Z,11.98
2022-12-26T04:57:13.878Z,15.52
2022-12-26T04:58:17.964Z,14.10
2022-12-26T04:59:21.416Z,14.50
2022-12-26T05:00:25.256Z,14.07
2022-12-26T05:01:46.736Z,13.57
2022-12-26T05:03:07.922Z,13.55
2022-12-26T05:04:34.700Z,14.38
2022-12-26T05:06:13.447Z,14.95
2022-12-26T05:07:41.813Z,13.07
2022-12-26T05:09:04.797Z,13.75
2022-12-26T05:10:08.922Z,13.85
2022-12-26T05:11:11.834Z,14.00
2022-12-26T05:12:14.552Z,14.00
2022-12-26T05:13:17.236Z,15.00
2022-12-26T05:14:20.044Z,13.93
2022-12-26T05:15:23.165Z,14.88
2022-12-26T05:16:45.702Z,13.88
2022-12-26T05:18:06.814Z,13.63
2022-12-26T05:19:30.579Z,15.70
2022-12-26T05:20:39.570Z,14.90
2022-12-26T05:22:01.028Z,13.10
2022-12-26T05:23:22.562Z,13.32
2022-12-26T05:24:54.049Z,13.68
2022-12-26T05:26:15.620Z,13.50
2022-12-26T05:27:37.123Z,12.45
2022-12-26T05:28:42.744Z,11.63
2022-12-26T05:29:45.443Z,14.43
2022-12-26T05:30:48.189Z,12.15
2022-12-26T05:31:51.124Z,14.38
2022-12-26T05:33:12.679Z,13.25
2022-12-26T05:34:17.607Z,13.65
2022-12-26T05:35:20.365Z,14.40
2022-12-26T05:36:25.359Z,14.80
2022-12-26T05:37:28.142Z,13.38
2022-12-26T05:38:30.942Z,13.10
2022-12-26T05:39:33.739Z,12.90
2022-12-26T05:40:36.790Z,14.13
2022-12-26T05:41:40.705Z,11.75
2022-12-26T05:42:43.784Z,14.05
2022-12-26T05:43:46.568Z,11.45
2022-12-26T05:44:49.863Z,12.20
2022-12-26T05:45:52.610Z,11.85
2022-12-26T05:46:55.506Z,12.05
2022-12-26T05:48:00.252Z,10.40
2022-12-26T05:49:03.656Z,9.88
2022-12-26T05:50:06.922Z,11.00
2022-12-26T05:51:09.685Z,10.65
2022-12-26T05:52:12.629Z,10.10
2022-12-26T05:53:15.583Z,10.10
2022-12-26T05:54:18.324Z,10.25
2022-12-26T05:55:21.177Z,10.95
2022-12-26T05:56:24.176Z,9.77
2022-12-26T05:57:27.044Z,10.70
2022-12-26T05:58:29.759Z,8.98
2022-12-26T05:59:32.485Z,9.93
2022-12-26T06:00:35.400Z,10.93
2022-12-26T06:01:38.367Z,10.60
2022-12-26T06:02:41.295Z,9.48
2022-12-26T06:03:47.931Z,10.15
2022-12-26T06:04:50.846Z,8.32
2022-12-26T06:05:57.476Z,8.80
2022-12-26T06:07:00.199Z,8.60
2022-12-26T06:08:03.196Z,8.82
2022-12-26T06:09:06.002Z,8.32
2022-12-26T06:10:09.340Z,7.32
2022-12-26T06:11:13.229Z,8.40
2022-12-26T06:12:15.908Z,9.15
2022-12-26T06:13:18.716Z,9.02
2022-12-26T06:14:21.548Z,8.25
2022-12-26T06:15:24.312Z,8.20
2022-12-26T06:16:27.141Z,7.20
2022-12-26T06:17:29.953Z,7.45
2022-12-26T06:18:32.909Z,9.05
2022-12-26T06:19:38.879Z,8.55
2022-12-26T06:20:44.258Z,8.77
2022-12-26T06:21:46.990Z,7.95
2022-12-26T06:22:50.240Z,8.50
2022-12-26T06:23:53.272Z,8.00
2022-12-26T06:24:56.056Z,7.53
2022-12-26T06:25:58.897Z,8.45
2022-12-26T06:27:01.845Z,9.77
2022-12-26T06:28:04.736Z,7.53
2022-12-26T06:29:07.730Z,7.30
2022-12-26T06:30:10.922Z,8.18
2022-12-26T06:31:18.276Z,6.60
2022-12-26T06:32:21.149Z,6.82
2022-12-26T06:33:23.831Z,8.40
2022-12-26T06:34:27.823Z,7.50
2022-12-26T06:35:30.627Z,7.40
2022-12-26T06:36:33.341Z,6.65
2022-12-26T06:37:36.278Z,7.15
2022-12-26T06:38:39.071Z,6.35
2022-12-26T06:39:41.791Z,7.95
2022-12-26T06:40:44.517Z,7.18
2022-12-26T06:41:47.437Z,8.25
2022-12-26T06:42:50.206Z,7.82
2022-12-26T06:43:53.158Z,8.05
2022-12-26T06:44:56.210Z,7.03
2022-12-26T06:46:00.147Z,8.52
2022-12-26T06:47:03.321Z,8.43
2022-12-26T06:48:06.712Z,8.25
2022-12-26T06:49:09.441Z,6.13
2022-12-26T06:50:12.463Z,7.38
2022-12-26T06:51:23.794Z,7.60
2022-12-26T06:52:26.490Z,6.50
2022-12-26T06:53:29.375Z,6.53
2022-12-26T06:54:32.381Z,7.00
2022-12-26T06:55:35.158Z,6.97
2022-12-26T06:56:37.840Z,5.93
2022-12-26T06:57:40.710Z,6.68
2022-12-26T06:58:46.094Z,5.63
2022-12-26T06:59:49.215Z,5.90
2022-12-26T07:00:52.007Z,5.03
2022-12-26T07:01:55.015Z,6.68
2022-12-26T07:02:57.935Z,6.85
2022-12-26T07:04:01.409Z,6.13
2022-12-26T07:05:04.510Z,5.50
2022-12-26T07:06:11.900Z,7.13
2022-12-26T07:07:14.678Z,6.55
2022-12-26T07:08:17.522Z,6.97
2022-12-26T07:09:20.774Z,7.43
2022-12-26T07:10:23.461Z,7.22
2022-12-26T07:11:30.696Z,8.05
2022-12-26T07:12:34.915Z,8.05
2022-12-26T07:13:37.646Z,7.20
2022-12-26T07:14:40.658Z,7.55
2022-12-26T07:15:43.846Z,6.85
2022-12-26T07:16:46.717Z,8.02
2022-12-26T07:17:49.861Z,7.80
2022-12-26T07:18:54.316Z,7.20
2022-12-26T07:19:57.009Z,6.63
2022-12-26T07:20:59.936Z,7.80
2022-12-26T07:22:02.707Z,7.90
2022-12-26T07:23:05.634Z,8.43
2022-12-26T07:24:15.302Z,9.18
2022-12-26T07:25:18.095Z,8.27
2022-12-26T07:26:21.530Z,8.57
2022-12-26T07:27:24.478Z,8.20
2022-12-26T07:28:28.139Z,8.82
2022-12-26T07:29:30.935Z,9.82
2022-12-26T07:30:33.782Z,8.95
2022-12-26T07:31:36.526Z,9.82
2022-12-26T07:32:39.332Z,8.38
2022-12-26T07:33:42.015Z,8.68
2022-12-26T07:34:44.740Z,9.77
2022-12-26T07:35:47.602Z,10.32
2022-12-26T07:36:50.462Z,9.05
2022-12-26T07:37:53.206Z,9.20
2022-12-26T07:38:56.203Z,8.77
2022-12-26T07:39:59.556Z,9.77
2022-12-26T07:41:22.444Z,9.27
2022-12-26T07:42:25.141Z,8.25
2022-12-26T07:43:28.334Z,8.05
2022-12-26T07:44:32.670Z,9.98
2022-12-26T07:45:38.045Z,10.07
2022-12-26T07:46:46.549Z,9.90
2022-12-26T07:47:52.809Z,10.52
2022-12-26T07:48:55.617Z,9.77
2022-12-26T07:49:58.329Z,9.15
2022-12-26T07:51:04.124Z,10.38
2022-12-26T07:52:06.927Z,9.85
2022-12-26T07:53:09.747Z,10.23
2022-12-26T07:54:13.808Z,10.15
2022-12-26T07:55:16.596Z,11.35
2022-12-26T07:56:19.427Z,11.02
2022-12-26T07:57:47.407Z,11.77
2022-12-26T07:58:48.960Z,10.95
2022-12-26T07:59:53.627Z,12.13
2022-12-26T08:01:02.279Z,11.75
2022-12-26T08:02:05.269Z,9.77
2022-12-26T08:03:09.898Z,9.32
2022-12-26T08:04:13.738Z,9.82
2022-12-26T08:05:17.628Z,11.38
2022-12-26T08:06:20.670Z,10.73
2022-12-26T08:07:23.693Z,10.40
2022-12-26T08:08:26.339Z,10.57
2022-12-26T08:09:29.091Z,11.13
2022-12-26T08:10:31.797Z,11.25
2022-12-26T08:11:35.821Z,11.10
2022-12-26T08:12:38.789Z,11.88
2022-12-26T08:13:41.496Z,11.80
2022-12-26T08:14:44.223Z,11.82
2022-12-26T08:15:46.983Z,12.00
2022-12-26T08:16:53.380Z,11.30
2022-12-26T08:17:56.657Z,10.60
2022-12-26T08:19:02.963Z,10.73
2022-12-26T08:20:06.829Z,11.18
2022-12-26T08:21:10.487Z,11.35
2022-12-26T08:22:13.374Z,12.63
2022-12-26T08:23:16.411Z,12.63
2022-12-26T08:24:19.377Z,13.27
2022-12-26T08:25:22.369Z,13.50
2022-12-26T08:26:25.063Z,13.07
2022-12-26T08:27:27.906Z,13.57
2022-12-26T08:28:30.617Z,12.00
2022-12-26T08:29:33.382Z,14.20
2022-12-26T08:30:38.570Z,12.38
2022-12-26T08:31:41.634Z,14.10
2022-12-26T08:32:46.352Z,11.20
2022-12-26T08:33:49.422Z,10.65
2022-12-26T08:34:52.266Z,11.32
2022-12-26T08:35:55.118Z,11.23
2022-12-26T08:36:57.897Z,11.35
2022-12-26T08:38:01.537Z,12.07
2022-12-26T08:39:04.298Z,12.55
2022-12-26T08:40:07.584Z,13.07
2022-12-26T08:41:10.367Z,12.15
2022-12-26T08:42:13.170Z,12.95
2022-12-26T08:43:42.180Z,11.95
2022-12-26T08:44:38.474Z,12.02
2022-12-26T08:45:41.285Z,12.00
2022-12-26T08:46:45.485Z,12.00
2022-12-26T08:47:48.320Z,12.45
2022-12-26T08:48:52.071Z,12.55
2022-12-26T08:49:55.009Z,14.18
2022-12-26T08:51:03.748Z,13.82
2022-12-26T08:52:06.450Z,12.48
2022-12-26T08:53:09.666Z,12.38
2022-12-26T08:54:12.408Z,12.52
2022-12-26T08:55:15.179Z,12.80
2022-12-26T08:56:23.819Z,13.48
2022-12-26T08:57:26.524Z,11.30
2022-12-26T08:58:29.556Z,12.55
2022-12-26T08:59:32.351Z,12.38
2022-12-26T09:00:35.132Z,14.05
2022-12-26T09:01:38.874Z,13.10
2022-12-26T09:02:41.913Z,12.15
2022-12-26T09:03:45.036Z,13.50
2022-12-26T09:04:47.836Z,11.82
2022-12-26T09:05:50.718Z,12.18
2022-12-26T09:06:53.516Z,13.52
2022-12-26T09:07:56.670Z,13.32
2022-12-26T09:08:59.652Z,13.52
2022-12-26T09:10:02.440Z,12.93
2022-12-26T09:11:13.515Z,13.80
2022-12-26T09:12:16.277Z,14.50
2022-12-26T09:13:20.307Z,14.13
2022-12-26T09:14:23.163Z,14.02
2022-12-26T09:15:26.002Z,12.95
2022-12-26T09:16:37.412Z,13.50
2022-12-26T09:17:41.991Z,14.98
2022-12-26T09:18:45.729Z,13.05
2022-12-26T09:19:49.863Z,12.30
2022-12-26T09:20:52.537Z,13.48
2022-12-26T09:22:15.773Z,12.30
2022-12-26T09:23:18.489Z,13.00
2022-12-26T09:24:21.413Z,13.13
2022-12-26T09:25:25.991Z,11.77
2022-12-26T09:26:29.119Z,12.93
2022-12-26T09:27:31.904Z,12.80
2022-12-26T09:28:35.195Z,12.65
2022-12-26T09:29:38.458Z,13.13
2022-12-26T09:30:41.311Z,13.15
2022-12-26T09:31:44.268Z,13.50
2022-12-26T09:32:47.086Z,13.73
2022-12-26T09:33:50.284Z,13.13
2022-12-26T09:34:53.043Z,12.73
2022-12-26T09:35:59.806Z,13.63
2022-12-26T09:37:06.393Z,11.93
2022-12-26T09:38:09.092Z,12.73
2022-12-26T09:39:11.842Z,13.13
2022-12-26T09:40:23.872Z,13.23
2022-12-26T09:41:32.732Z,14.35
2022-12-26T09:42:47.568Z,12.82
2022-12-26T09:44:26.989Z,12.75
2022-12-26T09:45:47.647Z,12.95
2022-12-26T09:47:15.207Z,12.50
2022-12-26T09:48:40.074Z,12.32
2022-12-26T09:49:51.926Z,13.30
2022-12-26T09:50:54.787Z,14.13
2022-12-26T09:52:02.315Z,10.95
2022-12-26T09:53:08.041Z,13.20
2022-12-26T09:54:19.362Z,14.13
2022-12-26T09:55:30.028Z,13.98
2022-12-26T09:57:01.877Z,13.50
2022-12-26T09:58:01.175Z,14.07
2022-12-26T09:59:24.603Z,13.93
2022-12-26T10:00:30.251Z,14.10
2022-12-26T10:01:38.859Z,14.70
2022-12-26T10:02:42.416Z,13.25
2022-12-26T10:03:50.612Z,13.20
2022-12-26T10:04:55.263Z,12.30
2022-12-26T10:06:05.321Z,13.15
2022-12-26T10:07:15.091Z,13.45
2022-12-26T10:08:47.843Z,15.05
2022-12-26T10:10:09.300Z,13.98
2022-12-26T10:11:35.876Z,13.85
2022-12-26T10:12:56.830Z,13.07
2022-12-26T10:15:19.712Z,14.05
2022-12-26T10:16:46.035Z,12.48
2022-12-26T10:17:51.692Z,14.85
2022-12-26T10:19:46.618Z,13.70
2022-12-26T10:21:00.885Z,13.90
2022-12-26T10:22:19.076Z,14.13
2022-12-26T10:23:35.511Z,14.32
2022-12-26T10:24:39.781Z,13.38
2022-12-26T10:25:54.353Z,12.48
2022-12-26T10:27:18.233Z,13.75
2022-12-26T10:28:33.401Z,14.20
2022-12-26T10:29:42.611Z,13.00
2022-12-26T10:30:46.880Z,13.55
2022-12-26T10:32:23.004Z,14.32
2022-12-26T10:33:52.497Z,13.90
2022-12-26T10:34:55.681Z,14.32
2022-12-26T10:35:59.771Z,13.85
2022-12-26T10:37:20.146Z,13.45
2022-12-26T10:38:30.173Z,14.20
2022-12-26T10:40:09.931Z,13.57
2022-12-26T10:41:23.737Z,13.35
2022-12-26T10:42:40.888Z,13.07
2022-12-26T10:43:45.748Z,13.65
2022-12-26T10:44:48.529Z,13.73
2022-12-26T10:46:09.951Z,14.15
2022-12-26T10:47:29.218Z,12.50
2022-12-26T10:48:32.070Z,13.05
2022-12-26T10:49:34.938Z,12.63
2022-12-26T10:50:38.436Z,13.05
2022-12-26T10:51:41.407Z,13.57
2022-12-26T10:52:44.218Z,12.85
2022-12-26T10:53:49.919Z,13.25
2022-12-26T10:55:28.492Z,12.05
2022-12-26T10:56:23.062Z,12.73
2022-12-26T10:57:29.135Z,13.68
2022-12-26T10:58:35.053Z,12.60
2022-12-26T10:59:48.979Z,12.65
2022-12-26T11:00:52.033Z,12.38
2022-12-26T11:01:55.177Z,12.65
2022-12-26T11:03:08.211Z,12.15
2022-12-26T11:04:44.524Z,12.45
2022-12-26T11:07:11.812Z,11.95
2022-12-26T11:08:53.216Z,11.98
2022-12-26T11:09:58.618Z,13.68
2022-12-26T11:11:46.045Z,13.10
2022-12-26T11:12:55.724Z,11.27
2022-12-26T11:14:02.990Z,13.32
2022-12-26T11:15:20.425Z,14.32
2022-12-26T11:16:31.636Z,11.52
2022-12-26T11:17:39.463Z,13.55
2022-12-26T11:18:49.836Z,12.13
2022-12-26T11:20:28.146Z,12.77
2022-12-26T11:21:34.830Z,11.82
2022-12-26T11:22:37.713Z,11.88
2022-12-26T11:23:40.539Z,12.93
2022-12-26T11:24:43.375Z,12.68
2022-12-26T11:25:58.478Z,12.07
2022-12-26T11:27:18.316Z,13.07
2022-12-26T11:28:35.269Z,11.90
2022-12-26T11:29:38.034Z,13.52
2022-12-26T11:30:40.917Z,12.23
2022-12-26T11:31:56.164Z,12.10
2022-12-26T11:33:26.507Z,11.60
2022-12-26T11:34:36.650Z,12.20
2022-12-26T11:36:05.183Z,12.20
2022-12-26T11:37:19.795Z,12.65
2022-12-26T11:38:38.997Z,12.18
2022-12-26T11:39:45.568Z,11.18
2022-12-26T11:41:11.402Z,12.10
2022-12-26T11:42:21.771Z,11.75
2022-12-26T11:43:25.135Z,11.20
2022-12-26T11:44:31.117Z,12.20
2022-12-26T11:45:44.501Z,12.32
2022-12-26T11:46:58.819Z,12.00
2022-12-26T11:48:01.665Z,11.70
2022-12-26T11:49:05.230Z,12.50
2022-12-26T11:50:21.231Z,10.75
2022-12-26T11:51:45.648Z,10.77
2022-12-26T11:52:55.107Z,10.82
2022-12-26T11:54:24.055Z,10.75
2022-12-26T11:55:28.461Z,11.85
2022-12-26T11:56:31.599Z,12.05
2022-12-26T11:57:34.356Z,11.60
2022-12-26T11:58:37.236Z,12.25
2022-12-26T11:59:40.347Z,11.25
2022-12-26T12:01:07.391Z,13.18
2022-12-26T12:02:29.320Z,10.50
2022-12-26T12:03:45.247Z,9.45
2022-12-26T12:04:54.738Z,9.93
2022-12-26T12:06:06.105Z,10.23
2022-12-26T12:07:20.631Z,9.88
2022-12-26T12:08:28.655Z,9.55
2022-12-26T12:09:53.175Z,11.10
2022-12-26T12:11:04.146Z,10.52
2022-12-26T12:12:07.144Z,8.88
2022-12-26T12:13:28.114Z,10.00
2022-12-26T12:16:29.248Z,9.82
2022-12-26T12:18:17.465Z,10.05
2022-12-26T12:19:20.316Z,9.30
2022-12-26T12:21:13.678Z,10.02
2022-12-26T12:22:27.933Z,9.45
2022-12-26T12:23:58.001Z,8.23
2022-12-26T12:25:18.541Z,9.33
2022-12-26T12:27:57.127Z,7.82
2022-12-26T12:29:08.824Z,8.05
2022-12-26T12:30:53.286Z,8.90
2022-12-26T12:32:01.714Z,8.07
2022-12-26T12:33:53.855Z,8.45
2022-12-26T12:35:20.901Z,6.18
2022-12-26T12:36:29.608Z,6.68
2022-12-26T12:37:38.450Z,6.90
2022-12-26T12:39:03.552Z,7.00
2022-12-26T12:40:26.970Z,6.63
2022-12-26T12:41:42.187Z,6.45
2022-12-26T12:43:22.350Z,7.07
2022-12-26T12:44:56.653Z,6.68
2022-12-26T12:46:08.491Z,6.15
2022-12-26T12:47:36.317Z,6.45
2022-12-26T12:48:46.390Z,7.10
2022-12-26T12:49:52.131Z,6.70
2022-12-26T12:51:09.986Z,5.93
2022-12-26T12:52:37.073Z,5.85
2022-12-26T12:53:39.757Z,6.97
2022-12-26T12:54:49.541Z,6.60
2022-12-26T12:56:25.150Z,6.90
2022-12-26T12:57:55.206Z,6.68
2022-12-26T12:59:50.532Z,6.55
2022-12-26T13:01:01.041Z,6.63
2022-12-26T13:02:20.288Z,7.47
2022-12-26T13:04:04.184Z,7.18
2022-12-26T13:05:34.257Z,6.90
2022-12-26T13:06:37.077Z,7.25
2022-12-26T13:07:46.903Z,7.40
2022-12-26T13:09:28.323Z,7.18
2022-12-26T13:10:33.423Z,7.55
2022-12-26T13:11:40.015Z,8.52
2022-12-26T13:12:43.657Z,7.90
2022-12-26T13:13:55.392Z,7.50
2022-12-26T13:15:01.907Z,6.60
2022-12-26T13:16:16.092Z,7.05
2022-12-26T13:17:38.136Z,6.40
2022-12-26T13:18:48.348Z,7.05
2022-12-26T13:20:02.651Z,7.05
2022-12-26T13:21:07.789Z,7.25
2022-12-26T13:22:53.475Z,6.95
2022-12-26T13:24:24.049Z,7.40
2022-12-26T13:25:31.500Z,6.55
2022-12-26T13:26:47.197Z,7.22
2022-12-26T13:27:52.078Z,6.05
2022-12-26T13:28:57.936Z,6.22
2022-12-26T13:30:00.842Z,6.45
2022-12-26T13:31:03.609Z,6.97
2022-12-26T13:32:22.518Z,7.55
2022-12-26T13:33:25.563Z,6.53
2022-12-26T13:34:28.819Z,6.32
2022-12-26T13:35:56.136Z,6.78
2022-12-26T13:37:01.102Z,7.75
2022-12-26T13:38:03.929Z,6.63
2022-12-26T13:39:27.725Z,6.57
2022-12-26T13:40:35.202Z,6.55
2022-12-26T13:41:58.860Z,6.63
2022-12-26T13:43:38.218Z,6.75
2022-12-26T13:44:41.184Z,5.72
2022-12-26T13:45:43.987Z,5.35
2022-12-26T13:46:49.495Z,5.70
2022-12-26T13:47:52.268Z,6.35
2022-12-26T13:48:57.496Z,4.97
2022-12-26T13:50:38.969Z,5.85
2022-12-26T13:51:43.287Z,6.10
2022-12-26T13:52:47.226Z,5.63
2022-12-26T13:53:59.941Z,5.20
2022-12-26T13:55:09.277Z,5.90
2022-12-26T13:56:18.217Z,6.30
2022-12-26T13:57:42.946Z,6.07
2022-12-26T13:58:58.723Z,5.40
2022-12-26T14:00:23.835Z,5.28
2022-12-26T14:01:36.544Z,5.95
2022-12-26T14:03:15.981Z,5.55
2022-12-26T14:04:20.438Z,5.40
2022-12-26T14:06:10.486Z,5.63
2022-12-26T14:07:41.942Z,5.25
2022-12-26T14:08:55.553Z,5.55
2022-12-26T14:10:30.108Z,5.85
2022-12-26T14:11:57.058Z,5.70
2022-12-26T14:13:25.117Z,5.45
2022-12-26T14:14:46.221Z,6.00
2022-12-26T14:16:18.225Z,5.20
2022-12-26T14:17:41.565Z,5.47
2022-12-26T14:19:22.116Z,5.35
2022-12-26T14:20:40.081Z,5.82
2022-12-26T14:22:09.290Z,5.60
2022-12-26T14:23:24.557Z,5.43
2022-12-26T14:24:52.328Z,5.88
2022-12-26T14:26:18.318Z,7.20
2022-12-26T14:27:45.247Z,5.95
2022-12-26T14:29:12.410Z,5.95
2022-12-26T14:30:35.346Z,6.13
2022-12-26T14:31:43.836Z,6.47
2022-12-26T14:33:07.816Z,5.53
2022-12-26T14:34:55.031Z,6.07
2022-12-26T14:36:12.503Z,6.03
2022-12-26T14:37:21.079Z,7.47
2022-12-26T14:38:32.477Z,5.78
2022-12-26T14:39:37.999Z,6.53
2022-12-26T14:41:02.222Z,6.38
2022-12-26T14:42:27.047Z,6.50
2022-12-26T14:43:40.934Z,6.05
2022-12-26T14:44:44.362Z,6.10
2022-12-26T14:45:52.570Z,6.03
2022-12-26T14:46:58.455Z,6.07
2022-12-26T14:48:01.700Z,4.88
2022-12-26T14:49:24.229Z,5.32
2022-12-26T14:50:33.260Z,5.97
2022-12-26T14:51:37.329Z,5.78
2022-12-26T14:52:41.133Z,5.78
2022-12-26T14:53:45.797Z,6.00
2022-12-26T14:54:51.459Z,5.75
2022-12-26T14:56:14.584Z,6.22
2022-12-26T14:57:36.199Z,5.63
2022-12-26T14:58:49.591Z,7.10
2022-12-26T15:00:21.335Z,6.93
2022-12-26T15:01:24.251Z,6.32
2022-12-26T15:02:34.480Z,6.30
2022-12-26T15:03:40.643Z,6.53
2022-12-26T15:05:05.687Z,5.72
2022-12-26T15:06:21.189Z,5.50
2022-12-26T15:07:57.655Z,6.13
2022-12-26T15:09:29.583Z,6.47
2022-12-26T15:10:49.219Z,6.28
2022-12-26T15:12:29.502Z,6.43
2022-12-26T15:14:05.005Z,5.10
2022-12-26T15:15:25.574Z,6.15
2022-12-26T15:16:40.505Z,5.20
2022-12-26T15:17:45.856Z,6.10
2022-12-26T15:19:38.034Z,6.13
2022-12-26T15:21:21.756Z,5.10
2022-12-26T15:23:08.372Z,5.50
2022-12-26T15:24:26.977Z,6.22
2022-12-26T15:26:05.622Z,6.05
2022-12-26T15:27:26.741Z,6.15
2022-12-26T15:28:41.104Z,6.60
2022-12-26T15:30:25.762Z,5.90
2022-12-26T15:31:36.771Z,5.68
2022-12-26T15:32:50.550Z,5.88
2022-12-26T15:34:22.581Z,6.32
2022-12-26T15:35:33.804Z,5.90
2022-12-26T15:36:48.166Z,5.78
2022-12-26T15:38:33.310Z,6.22
2022-12-26T15:39:58.961Z,5.63
2022-12-26T15:41:14.835Z,5.20
2022-12-26T15:42:26.760Z,5.50
2022-12-26T15:43:53.708Z,5.43
2022-12-26T15:45:27.791Z,5.43
2022-12-26T15:46:58.794Z,6.43
2022-12-26T15:48:11.879Z,5.40
2022-12-26T15:49:33.085Z,5.38